GMTN  Saniat Rmel  Airport

Morocco

Add Bookmark
ICAO GMTN
IATA TTU
Type Airport
Status Operational
Latitude
35° 35' 39" N
35.594299
Longitude
5° 19' 12" W
-5.320020
Local (DST + 1) UTC (GMT 0)
Jul 29, 2015 12:28 Jul 29, 2015 11:28
Sunrise-Sunset Local UTC
Begin Civil Twilight 05:57 04:57
Sunrise 06:25 05:25
Sunset 08:29 19:29
End Civil Twilight 08:57 19:57
VFR
VFR
MVFR
MVFR
IFR
IFR
LIFR
LIFR
Unknown
Unavailable

Current Weather

METAR Observed VFR
GMTN 291100Z 07008KT CAVOK 31/19 Q1011 NOSIG Wed, Jul 29, 2015 @ 11:00 UTC
(28 Minutes ago)
Visual Flight Rules
Wind Visibility Conditions
070° at 8 knots (15 kph) 10 km or more
  • No significant weather
Temperatures Readings Precipitation
Current Temp
31°C
88°F
Dewpoint
19°C
66°F
Heat Index
33°C
91°
Humidity 49%
Altimeter 29.85" Hg
Sea Level Pressure 1,011 mb
Field Elevation
10 m
33 ft
None Recorded

Additional weather within a 92.6km radius of GMTN

Map ICAO Location
GMTT 55.9km W/NW (285°)
LXGB 62km N (360°)
VFR
VFR
MVFR
MVFR
IFR
IFR
LIFR
LIFR
Unknown
Unavailable
-
-

CheckWX.com is intended as a tool to help pilots better visualize weather data. It is not intended as a substitute for an official weather briefing obtained from a Flight Service Station. CheckWX.com does not meet the FAA requirements for an official pre-flight weather briefing. Therefore, it's important that pilots still call and obtain an official FSS pre-flight weather briefing.

© 2007-2015 CheckWX.com
11:28:53 UTC